Time;durP1;ratioP1;P1;durP2;ratioP2;P2;SDS_P1;SDS_P2;PMS_P1;PMS_P2;Temp;Humidity;BMP_temperature;BMP_pressure;BME280_temperature;BME280_humidity;BME280_pressure;Samples;Min_cycle;Max_cycle;Signal;HPM_P1;HPM_P2
2023/06/05 00:01:36;;;;;;;6.68;4.30;;;10.70;99.90;;;;;;5032854;28;20054;-28
2023/06/05 00:04:03;;;;;;;5.63;3.92;;;10.70;99.90;;;;;;5033427;28;20084;-28
2023/06/05 00:06:29;;;;;;;9.70;5.18;;;10.80;99.90;;;;;;5034294;28;20084;-28
2023/06/05 00:08:54;;;;;;;6.82;4.03;;;10.90;99.90;;;;;;5033728;28;20433;-28
2023/06/05 00:11:21;;;;;;;7.00;4.38;;;10.90;99.90;;;;;;5033452;28;20120;-29
2023/06/05 00:13:47;;;;;;;6.20;4.22;;;11.00;99.90;;;;;;5033430;28;20124;-28
2023/06/05 00:16:13;;;;;;;4.45;3.60;;;11.00;99.90;;;;;;5033357;28;20096;-28
2023/06/05 00:18:39;;;;;;;5.57;3.42;;;11.00;99.90;;;;;;5033653;28;20049;-28
2023/06/05 00:21:04;;;;;;;5.63;3.38;;;11.10;99.90;;;;;;5033256;28;20440;-27
2023/06/05 00:23:30;;;;;;;7.35;3.28;;;11.20;99.90;;;;;;5033303;28;20068;-28
2023/06/05 00:25:57;;;;;;;4.07;3.38;;;11.20;99.90;;;;;;5032873;28;20057;-28
2023/06/05 00:28:24;;;;;;;5.32;2.90;;;11.20;99.90;;;;;;5033229;28;20037;-27
2023/06/05 00:30:50;;;;;;;6.13;3.22;;;11.20;99.90;;;;;;5032300;28;20054;-28
2023/06/05 00:33:15;;;;;;;6.03;3.05;;;11.20;99.90;;;;;;5033509;28;20057;-28
2023/06/05 00:35:41;;;;;;;6.22;3.30;;;11.30;99.90;;;;;;5032053;28;20077;-28
2023/06/05 00:38:07;;;;;;;4.63;2.70;;;11.30;99.90;;;;;;5033199;28;20394;-27
2023/06/05 00:40:33;;;;;;;6.43;3.03;;;11.30;99.90;;;;;;5031882;28;20045;-28
2023/06/05 00:42:58;;;;;;;4.07;2.75;;;11.30;99.90;;;;;;5033110;28;20053;-28
2023/06/05 00:45:24;;;;;;;6.32;3.67;;;11.30;99.90;;;;;;5033029;28;20052;-28
2023/06/05 00:47:50;;;;;;;4.40;3.00;;;11.30;78.20;;;;;;5031630;28;20037;-28
2023/06/05 00:50:17;;;;;;;7.90;4.10;;;11.30;76.60;;;;;;5016354;28;20064;-28
2023/06/05 00:52:44;;;;;;;5.78;2.92;;;11.30;47.30;;;;;;5035265;28;20054;-28
2023/06/05 00:55:11;;;;;;;4.20;2.22;;;11.30;45.20;;;;;;5036151;28;20096;-27
2023/06/05 00:57:38;;;;;;;5.25;2.50;;;11.30;12.60;;;;;;5002626;28;20133;-28
2023/06/05 01:00:09;;;;;;;3.10;2.38;;;11.30;1.00;;;;;;5037250;28;20053;-28
2023/06/05 01:02:37;;;;;;;8.38;3.33;;;11.30;1.00;;;;;;5035645;28;20053;-28
2023/06/05 01:05:03;;;;;;;4.13;2.35;;;11.20;1.00;;;;;;5035338;28;20049;-28
2023/06/05 01:07:32;;;;;;;6.88;3.13;;;11.20;1.00;;;;;;5035549;28;20053;-28
2023/06/05 01:10:03;;;;;;;5.80;3.58;;;11.20;1.00;;;;;;5035478;28;20213;-29
2023/06/05 01:12:54;;;;;;;3.40;2.80;;;11.20;1.00;;;;;;5035779;28;20120;-29
2023/06/05 01:15:28;;;;;;;4.75;3.50;;;11.10;1.00;;;;;;5036655;28;20056;-28
2023/06/05 01:17:58;;;;;;;5.45;3.38;;;11.10;1.00;;;;;;5036367;28;20089;-28
2023/06/05 01:20:33;;;;;;;6.93;4.00;;;11.10;1.00;;;;;;5036816;28;20088;-28
2023/06/05 01:22:59;;;;;;;5.13;3.75;;;11.10;1.00;;;;;;5036129;28;20049;-29
2023/06/05 01:25:25;;;;;;;7.30;3.67;;;11.00;1.00;;;;;;5035865;28;20123;-28
2023/06/05 01:28:22;;;;;;;6.63;5.22;;;10.90;1.00;;;;;;5036154;28;20460;-28
2023/06/05 01:31:03;;;;;;;9.50;5.65;;;10.90;1.00;;;;;;5036634;28;20049;-28
2023/06/05 01:33:44;;;;;;;9.35;5.30;;;10.90;1.00;;;;;;5036918;28;20386;-28
2023/06/05 01:36:14;;;;;;;7.75;5.13;;;10.90;1.00;;;;;;5036042;28;20042;-28
2023/06/05 01:38:42;;;;;;;7.65;5.38;;;10.90;1.00;;;;;;5036190;28;20432;-28
2023/06/05 01:41:10;;;;;;;6.13;4.95;;;10.90;1.00;;;;;;5036426;28;20054;-27
2023/06/05 01:43:37;;;;;;;7.90;5.53;;;10.90;1.00;;;;;;5035825;28;20100;-29
2023/06/05 01:46:07;;;;;;;10.60;5.90;;;10.80;1.00;;;;;;5035777;28;20447;-28
2023/06/05 01:48:33;;;;;;;6.68;5.70;;;10.80;1.00;;;;;;5034789;28;20056;-27
2023/06/05 01:51:02;;;;;;;8.52;5.97;;;10.80;1.00;;;;;;5035676;28;20088;-28
2023/06/05 01:53:28;;;;;;;8.18;5.88;;;10.80;1.00;;;;;;5035907;28;20109;-28
2023/06/05 01:55:58;;;;;;;8.30;6.68;;;10.80;1.00;;;;;;5034443;28;20048;-28
2023/06/05 01:58:27;;;;;;;7.55;5.97;;;10.70;1.00;;;;;;5035644;28;20049;-28
2023/06/05 02:00:53;;;;;;;9.35;5.50;;;10.70;1.00;;;;;;5035553;28;20050;-27
2023/06/05 02:03:20;;;;;;;6.70;5.18;;;10.70;1.00;;;;;;5034642;28;20136;-28
2023/06/05 02:05:46;;;;;;;6.25;4.95;;;10.60;50.00;;;;;;5035454;28;20056;-28
2023/06/05 02:08:13;;;;;;;7.72;4.75;;;10.80;18.50;;;;;;5017766;28;20106;-28
2023/06/05 02:10:43;;;;;;;5.72;4.40;;;10.70;1.70;;;;;;5035339;28;20124;-28
2023/06/05 02:13:10;;;;;;;8.88;4.75;;;10.80;5.90;;;;;;5035404;28;20057;-28
2023/06/05 02:15:36;;;;;;;6.93;4.40;;;10.70;1.00;;;;;;5035244;28;20053;-28
2023/06/05 02:18:04;;;;;;;7.38;3.78;;;10.70;1.00;;;;;;5034021;28;20128;-28
2023/06/05 02:20:30;;;;;;;5.75;4.10;;;10.70;1.00;;;;;;5035305;28;20424;-28
2023/06/05 02:22:57;;;;;;;5.80;3.85;;;10.70;1.00;;;;;;5035927;28;20042;-28
2023/06/05 02:25:26;;;;;;;7.22;4.53;;;10.70;1.00;;;;;;5034709;28;20497;-28
2023/06/05 02:27:56;;;;;;;6.25;3.35;;;10.70;1.00;;;;;;5034118;28;20553;-28
2023/06/05 02:30:22;;;;;;;6.15;3.85;;;10.70;1.00;;;;;;5034818;28;20045;-29
2023/06/05 02:32:56;;;;;;;5.25;3.97;;;10.70;1.00;;;;;;5034917;28;20053;-28
2023/06/05 02:35:22;;;;;;;5.95;3.70;;;10.70;1.00;;;;;;5034877;28;20037;-28
2023/06/05 02:37:48;;;;;;;6.15;4.43;;;10.70;1.00;;;;;;5034838;28;20049;-28
2023/06/05 02:40:14;;;;;;;5.95;4.03;;;10.70;12.60;;;;;;5034778;28;20045;-28
2023/06/05 02:42:40;;;;;;;4.57;3.88;;;10.70;67.90;;;;;;5035043;28;20542;-28
2023/06/05 02:45:07;;;;;;;8.10;4.10;;;10.70;26.00;;;;;;5034596;28;20081;-28
2023/06/05 02:47:34;;;;;;;7.80;4.35;;;10.70;20.20;;;;;;5034624;28;20044;-29
2023/06/05 02:50:01;;;;;;;6.95;3.53;;;10.70;51.20;;;;;;5034577;28;20061;-28
2023/06/05 02:52:27;;;;;;;5.63;2.67;;;10.70;13.00;;;;;;5034577;28;20046;-29
2023/06/05 02:54:54;;;;;;;3.83;2.60;;;10.80;30.20;;;;;;5033267;28;20128;-28
2023/06/05 02:57:20;;;;;;;4.88;3.03;;;10.80;6.30;;;;;;5034454;28;20053;-30
2023/06/05 02:59:45;;;;;;;3.22;2.50;;;10.90;1.00;;;;;;5034444;28;20072;-28
2023/06/05 03:02:11;;;;;;;4.40;2.33;;;10.90;6.10;;;;;;5033677;28;20393;-29
2023/06/05 03:04:40;;;;;;;4.20;2.10;;;10.90;1.00;;;;;;5033407;28;20049;-28
2023/06/05 03:07:08;;;;;;;2.78;1.90;;;11.00;1.00;;;;;;5034864;28;20049;-28
2023/06/05 03:09:33;;;;;;;4.88;2.65;;;11.10;1.00;;;;;;5033269;28;20046;-28
2023/06/05 03:11:59;;;;;;;2.85;2.28;;;11.10;1.00;;;;;;5034189;28;20052;-28
2023/06/05 03:14:28;;;;;;;6.38;2.83;;;11.20;1.00;;;;;;5017190;28;20157;-29
2023/06/05 03:16:53;;;;;;;4.07;2.65;;;11.20;1.00;;;;;;5034096;28;20052;-28
2023/06/05 03:19:22;;;;;;;5.30;2.47;;;11.20;1.00;;;;;;5032777;28;20150;-29
2023/06/05 03:21:49;;;;;;;4.68;2.83;;;11.20;1.00;;;;;;5034014;28;20508;-28
2023/06/05 03:24:15;;;;;;;4.10;2.42;;;11.20;1.00;;;;;;5032756;28;20038;-28
2023/06/05 03:26:42;;;;;;;5.18;2.95;;;11.30;1.00;;;;;;5034297;28;20150;-28
2023/06/05 03:29:09;;;;;;;4.07;3.20;;;11.30;1.00;;;;;;5033907;28;20041;-29
2023/06/05 03:31:35;;;;;;;4.68;3.05;;;11.30;1.00;;;;;;5032866;28;20058;-28
2023/06/05 03:34:03;;;;;;;4.75;3.17;;;11.30;1.00;;;;;;5033795;28;20041;-28
2023/06/05 03:36:30;;;;;;;4.07;3.10;;;11.30;1.00;;;;;;5032537;28;20485;-28
2023/06/05 03:38:59;;;;;;;5.28;3.50;;;11.30;1.00;;;;;;5033492;28;20053;-28
2023/06/05 03:41:25;;;;;;;5.35;3.60;;;11.30;1.00;;;;;;5032680;28;20496;-29
2023/06/05 03:43:52;;;;;;;4.65;3.40;;;11.40;1.00;;;;;;5033513;28;20048;-28
2023/06/05 03:46:18;;;;;;;4.75;3.22;;;11.40;2.00;;;;;;5033634;28;20450;-28
2023/06/05 03:48:45;;;;;;;3.38;3.08;;;11.40;1.00;;;;;;5032651;28;20061;-30
2023/06/05 03:51:11;;;;;;;3.80;3.22;;;11.40;4.60;;;;;;5033619;28;20057;-28
2023/06/05 03:53:39;;;;;;;5.85;3.33;;;11.40;12.80;;;;;;5015854;28;20094;-28
2023/06/05 03:56:08;;;;;;;3.90;3.50;;;11.40;1.00;;;;;;5033502;28;20053;-28
2023/06/05 03:58:35;;;;;;;5.38;3.38;;;11.40;1.00;;;;;;5032260;28;20081;-29
2023/06/05 04:01:00;;;;;;;4.47;3.30;;;11.50;1.00;;;;;;5032299;28;20041;-27
2023/06/05 04:03:27;;;;;;;4.72;3.00;;;11.50;1.00;;;;;;5033341;28;20041;-28
2023/06/05 04:05:53;;;;;;;6.57;2.90;;;11.50;1.00;;;;;;5033970;28;20091;-28
2023/06/05 04:08:18;;;;;;;5.60;3.38;;;11.60;1.00;;;;;;5033398;28;20131;-28
2023/06/05 04:10:44;;;;;;;5.35;3.13;;;11.60;1.00;;;;;;5034171;28;20095;-28
2023/06/05 04:13:10;;;;;;;4.70;3.40;;;11.70;1.00;;;;;;5033439;28;20588;-28
2023/06/05 04:15:36;;;;;;;4.88;2.42;;;11.70;1.00;;;;;;5033348;28;20128;-28
2023/06/05 04:18:03;;;;;;;4.97;3.13;;;11.70;1.00;;;;;;5033259;28;20045;-28
2023/06/05 04:20:29;;;;;;;3.53;3.20;;;11.80;1.00;;;;;;5033222;28;20125;-28
2023/06/05 04:22:54;;;;;;;6.85;2.95;;;11.80;1.00;;;;;;5015775;28;20512;-28
2023/06/05 04:25:20;;;;;;;3.63;2.63;;;11.90;1.00;;;;;;5033103;28;20144;-28
2023/06/05 04:27:50;;;;;;;4.82;2.80;;;11.90;1.00;;;;;;5036485;28;20096;-28
2023/06/05 04:30:15;;;;;;;3.88;2.95;;;11.90;1.00;;;;;;5037716;28;20141;-28
2023/06/05 04:32:41;;;;;;;3.83;2.75;;;12.00;1.00;;;;;;5035919;28;20077;-28
2023/06/05 04:35:10;;;;;;;6.10;2.83;;;12.00;1.00;;;;;;5003135;28;20041;-29
2023/06/05 04:37:37;;;;;;;2.60;2.40;;;12.10;1.00;;;;;;5037064;28;20045;-28
2023/06/05 04:40:09;;;;;;;3.53;2.55;;;12.10;1.00;;;;;;5037065;28;20393;-28
2023/06/05 04:42:36;;;;;;;4.80;2.28;;;12.10;1.00;;;;;;5037454;28;20452;-28
2023/06/05 04:45:04;;;;;;;3.72;2.25;;;12.20;1.00;;;;;;5036818;28;20046;-29
2023/06/05 04:47:32;;;;;;;3.45;2.50;;;12.20;1.00;;;;;;5035572;28;20132;-29
2023/06/05 04:50:05;;;;;;;3.03;1.95;;;12.20;99.90;;;;;;5036837;28;20423;-28
2023/06/05 04:52:33;;;;;;;2.42;1.73;;;12.20;99.90;;;;;;5037032;28;20045;-29
2023/06/05 04:55:01;;;;;;;2.83;1.70;;;12.30;99.90;;;;;;5036711;28;20051;-28
2023/06/05 04:57:27;;;;;;;3.35;1.95;;;12.40;99.90;;;;;;5035391;28;20060;-28
2023/06/05 04:59:54;;;;;;;1.95;1.33;;;12.40;99.90;;;;;;5036857;28;20042;-28
2023/06/05 05:02:20;;;;;;;2.15;1.50;;;12.50;99.90;;;;;;5035359;28;20053;-29
2023/06/05 05:04:46;;;;;;;3.38;1.08;;;12.40;99.90;;;;;;5035024;28;20516;-28
2023/06/05 05:07:16;;;;;;;2.22;1.30;;;12.60;99.90;;;;;;5035241;28;20041;-29
2023/06/05 05:09:43;;;;;;;1.75;1.20;;;12.80;71.60;;;;;;5036489;28;20049;-28
2023/06/05 05:12:09;;;;;;;3.33;1.58;;;13.00;1.00;;;;;;5036636;28;20366;-28
2023/06/05 05:14:35;;;;;;;6.22;1.30;;;13.00;1.00;;;;;;5036367;28;20042;-28
2023/06/05 05:17:02;;;;;;;2.58;1.60;;;13.10;1.00;;;;;;5036368;28;20394;-28
2023/06/05 05:19:28;;;;;;;2.30;1.40;;;13.10;1.00;;;;;;5036161;28;20539;-28
2023/06/05 05:21:54;;;;;;;2.28;1.33;;;13.00;1.00;;;;;;5036461;28;20045;-28
2023/06/05 05:24:20;;;;;;;2.53;1.50;;;13.00;1.00;;;;;;5036697;28;20087;-28
2023/06/05 05:26:46;;;;;;;5.13;2.05;;;13.00;1.00;;;;;;5036670;28;20442;-28
2023/06/05 05:29:12;;;;;;;2.70;1.50;;;13.10;1.00;;;;;;5036079;28;20045;-28
2023/06/05 05:31:37;;;;;;;4.35;1.60;;;13.10;1.00;;;;;;5036003;28;20041;-28
2023/06/05 05:34:03;;;;;;;3.38;1.48;;;13.10;1.00;;;;;;5035958;28;20117;-28
2023/06/05 05:36:29;;;;;;;1.38;1.15;;;13.20;1.00;;;;;;5036006;28;20103;-28
2023/06/05 05:38:55;;;;;;;2.97;1.55;;;13.30;1.00;;;;;;5034993;28;20049;-28
2023/06/05 05:41:22;;;;;;;2.88;1.60;;;13.30;99.90;;;;;;5035837;28;20540;-28
2023/06/05 05:43:47;;;;;;;3.70;1.55;;;13.40;99.90;;;;;;5036297;28;20041;-28
2023/06/05 05:46:13;;;;;;;3.40;1.45;;;13.60;99.90;;;;;;5034604;28;20052;-28
2023/06/05 05:48:39;;;;;;;2.15;1.35;;;13.60;99.90;;;;;;5035687;28;20171;-28
2023/06/05 05:51:06;;;;;;;2.50;1.52;;;13.80;99.90;;;;;;5035684;28;20092;-28
2023/06/05 05:53:32;;;;;;;3.28;2.83;;;13.80;99.90;;;;;;5034445;28;20564;-29
2023/06/05 05:55:58;;;;;;;2.47;1.63;;;13.80;99.90;;;;;;5035316;28;20124;-28
2023/06/05 05:58:24;;;;;;;1.30;1.00;;;13.70;99.90;;;;;;5036315;28;20120;-28
2023/06/05 06:00:50;;;;;;;2.47;1.30;;;13.70;99.90;;;;;;5035990;28;20128;-28
2023/06/05 06:03:17;;;;;;;2.75;1.48;;;13.70;99.90;;;;;;5035417;28;20053;-28
2023/06/05 06:05:44;;;;;;;3.65;1.70;;;13.70;99.90;;;;;;5035244;28;20049;-28
2023/06/05 06:08:11;;;;;;;2.35;1.38;;;13.70;99.90;;;;;;5035322;28;20053;-28
2023/06/05 06:10:37;;;;;;;1.50;1.35;;;13.80;99.90;;;;;;5035398;28;20128;-28
2023/06/05 06:13:04;;;;;;;4.47;1.50;;;13.80;99.90;;;;;;5035253;28;20042;-28
2023/06/05 06:15:30;;;;;;;5.40;1.92;;;13.90;99.90;;;;;;5035245;28;20049;-29
2023/06/05 06:17:56;;;;;;;3.35;1.85;;;13.90;99.90;;;;;;5035959;28;20041;-28
2023/06/05 06:20:23;;;;;;;2.50;1.98;;;13.90;99.90;;;;;;5034986;28;20049;-29
2023/06/05 06:22:49;;;;;;;2.42;1.40;;;14.10;99.90;;;;;;5033980;28;20049;-28
2023/06/05 06:25:15;;;;;;;3.38;1.50;;;14.20;99.90;;;;;;5035312;28;20393;-28
2023/06/05 06:27:45;;;;;;;1.75;1.38;;;14.30;99.90;;;;;;5035007;28;20049;-28
2023/06/05 06:30:11;;;;;;;2.90;1.80;;;14.40;99.90;;;;;;5034193;28;20044;-28
2023/06/05 06:32:37;;;;;;;4.80;1.80;;;14.60;99.90;;;;;;5034952;28;20045;-29
2023/06/05 06:35:03;;;;;;;2.03;1.38;;;14.70;46.50;;;;;;5017308;28;20037;-28
2023/06/05 06:37:29;;;;;;;3.22;1.60;;;14.80;18.10;;;;;;5035386;28;20056;-29
2023/06/05 06:39:55;;;;;;;2.25;1.35;;;14.90;12.50;;;;;;5035304;28;20042;-28
2023/06/05 06:42:21;;;;;;;2.05;1.15;;;15.10;1.00;;;;;;5033748;28;20103;-28
2023/06/05 06:44:46;;;;;;;3.53;1.73;;;15.50;1.00;;;;;;5034522;28;20081;-28
2023/06/05 06:47:12;;;;;;;2.58;1.92;;;16.00;99.90;;;;;;5034616;28;20046;-29
2023/06/05 06:49:39;;;;;;;3.17;1.63;;;16.60;99.90;;;;;;5035047;28;20050;-28
2023/06/05 06:52:05;;;;;;;4.43;1.67;;;16.80;1.00;;;;;;5035020;28;20052;-28
2023/06/05 06:54:32;;;;;;;5.05;2.83;;;16.90;99.90;;;;;;5034410;28;20053;-29
2023/06/05 06:56:59;;;;;;;6.78;1.90;;;16.90;99.90;;;;;;5033161;28;20481;-29
2023/06/05 06:59:24;;;;;;;5.50;2.38;;;16.90;99.90;;;;;;5033217;28;20053;-28
2023/06/05 07:02:13;;;;;;;3.17;1.95;;;16.90;96.00;;;;;;5034287;28;20439;-29
2023/06/05 07:04:41;;;;;;;3.05;2.00;;;16.70;1.00;;;;;;5034021;28;20053;-29
2023/06/05 07:07:17;;;;;;;6.68;2.45;;;16.60;92.70;;;;;;5034193;28;20519;-28
2023/06/05 07:09:48;;;;;;;4.15;2.08;;;16.40;1.00;;;;;;5034072;28;20136;-29
2023/06/05 07:12:16;;;;;;;3.65;1.88;;;16.50;96.10;;;;;;5032781;28;20555;-29
2023/06/05 07:14:42;;;;;;;2.92;1.77;;;16.10;50.30;;;;;;5034651;28;20123;-29
2023/06/05 07:17:08;;;;;;;5.20;1.98;;;16.10;91.00;;;;;;5033081;28;20495;-29
2023/06/05 07:19:36;;;;;;;2.47;1.80;;;16.00;99.90;;;;;;5032934;28;20038;-29
2023/06/05 07:22:04;;;;;;;4.18;1.70;;;16.00;1.00;;;;;;5033892;28;20050;-30
2023/06/05 07:24:30;;;;;;;3.78;1.92;;;16.00;1.00;;;;;;5033915;28;20132;-29
2023/06/05 07:26:59;;;;;;;2.85;1.63;;;16.00;1.00;;;;;;5033402;28;20057;-28
2023/06/05 07:29:25;;;;;;;2.88;1.80;;;15.80;99.90;;;;;;5034116;28;20396;-28
2023/06/05 07:31:52;;;;;;;2.25;1.50;;;16.00;39.30;;;;;;5033768;28;20133;-27
2023/06/05 07:34:19;;;;;;;2.28;1.55;;;16.70;99.90;;;;;;5033668;28;20077;-29
2023/06/05 07:36:46;;;;;;;3.20;1.90;;;17.50;99.90;;;;;;5034614;28;20052;-28
2023/06/05 07:39:13;;;;;;;4.82;1.95;;;17.80;99.90;;;;;;5033778;28;20049;-28
2023/06/05 07:41:42;;;;;;;3.67;1.77;;;17.60;99.90;;;;;;5033650;28;20053;-29
2023/06/05 07:44:09;;;;;;;2.53;1.73;;;17.00;99.90;;;;;;5015957;28;20041;-28
2023/06/05 07:46:35;;;;;;;2.85;2.00;;;16.20;1.00;;;;;;5033657;28;20062;-28
2023/06/05 07:49:01;;;;;;;2.78;1.40;;;16.60;67.70;;;;;;5033591;28;20045;-28
2023/06/05 07:51:27;;;;;;;1.98;1.42;;;17.50;1.00;;;;;;5033596;28;20045;-27
2023/06/05 07:53:53;;;;;;;4.47;1.75;;;18.00;5.70;;;;;;5033635;28;20512;-29
2023/06/05 07:56:18;;;;;;;1.95;1.33;;;18.30;1.00;;;;;;5034052;28;20053;-29
2023/06/05 07:58:44;;;;;;;5.22;1.63;;;18.40;1.00;;;;;;5033483;28;20050;-29
2023/06/05 08:01:12;;;;;;;3.38;1.63;;;18.90;99.90;;;;;;5031864;28;20045;-28
2023/06/05 08:03:38;;;;;;;3.83;1.38;;;19.00;99.90;;;;;;5033351;28;20045;-29
2023/06/05 08:06:04;;;;;;;4.60;1.45;;;19.50;99.90;;;;;;5033942;28;20049;-27
2023/06/05 08:08:31;;;;;;;2.25;1.20;;;19.60;55.60;;;;;;5032369;28;20084;-29
2023/06/05 08:10:56;;;;;;;3.03;1.70;;;20.30;1.00;;;;;;5032342;28;20053;-28
2023/06/05 08:13:22;;;;;;;2.83;1.95;;;20.30;1.00;;;;;;5033236;28;20048;-29
2023/06/05 08:15:48;;;;;;;2.55;1.75;;;19.90;1.00;;;;;;5033411;28;20048;-29
2023/06/05 08:18:16;;;;;;;2.13;1.70;;;19.80;1.00;;;;;;5033374;28;20127;-28
2023/06/05 08:20:41;;;;;;;1.58;1.23;;;19.10;1.00;;;;;;5033213;28;20049;-28
2023/06/05 08:23:07;;;;;;;1.83;1.38;;;19.10;1.00;;;;;;5033345;28;20045;-29
2023/06/05 08:25:33;;;;;;;3.20;1.48;;;19.10;1.00;;;;;;5031725;28;20127;-28
2023/06/05 08:27:58;;;;;;;2.80;1.52;;;18.80;26.30;;;;;;5032898;28;20132;-28
2023/06/05 08:30:24;;;;;;;3.17;1.70;;;19.50;87.10;;;;;;5033222;28;20107;-28
2023/06/05 08:32:50;;;;;;;4.10;2.10;;;20.20;1.00;;;;;;5016632;28;20041;-29
2023/06/05 08:35:16;;;;;;;3.42;1.50;;;20.90;1.00;;;;;;5033078;28;20389;-28
2023/06/05 08:37:42;;;;;;;2.55;1.60;;;21.60;99.90;;;;;;5033118;28;20516;-28
2023/06/05 08:40:10;;;;;;;1.95;1.48;;;21.90;99.90;;;;;;5033369;28;20045;-28
2023/06/05 08:42:40;;;;;;;3.53;1.77;;;21.80;99.90;;;;;;5015644;28;20053;-29
2023/06/05 08:45:08;;;;;;;2.78;1.83;;;20.40;99.90;;;;;;5033807;28;20119;-29
2023/06/05 08:47:38;;;;;;;3.20;2.33;;;19.90;99.90;;;;;;5031937;28;20077;-29
2023/06/05 08:50:08;;;;;;;2.65;1.77;;;19.30;1.00;;;;;;5033117;28;20052;-28
2023/06/05 08:52:36;;;;;;;2.00;1.38;;;18.80;1.00;;;;;;5033051;28;20045;-28
2023/06/05 08:55:07;;;;;;;3.90;2.25;;;18.70;1.00;;;;;;5032949;28;20095;-29
2023/06/05 08:57:36;;;;;;;2.53;2.03;;;18.70;1.00;;;;;;5031781;28;20485;-28
2023/06/05 09:00:09;;;;;;;3.28;1.80;;;18.80;93.60;;;;;;5015222;28;20045;-29
2023/06/05 09:02:37;;;;;;;2.55;2.00;;;19.50;1.00;;;;;;5031813;28;20383;-29
2023/06/05 09:05:03;;;;;;;1.95;1.55;;;20.10;1.00;;;;;;5015285;28;20045;-28
2023/06/05 09:07:31;;;;;;;3.15;2.08;;;20.50;1.00;;;;;;5015238;28;20041;-29
2023/06/05 09:09:57;;;;;;;3.00;1.58;;;21.10;99.90;;;;;;5016301;28;20409;-29
2023/06/05 09:12:24;;;;;;;3.42;1.48;;;20.90;99.90;;;;;;5032671;28;20489;-29
2023/06/05 09:14:50;;;;;;;3.38;1.52;;;21.70;99.90;;;;;;5036305;28;20049;-28
2023/06/05 09:17:17;;;;;;;2.17;1.55;;;22.20;99.90;;;;;;5035357;28;20060;-29
2023/06/05 09:19:44;;;;;;;1.63;1.33;;;22.60;99.90;;;;;;5035539;28;20049;-29
2023/06/05 09:22:12;;;;;;;2.45;1.40;;;22.80;99.90;;;;;;5035050;28;20053;-28
2023/06/05 09:24:40;;;;;;;2.58;1.50;;;23.10;99.90;;;;;;5036403;28;20045;-29
2023/06/05 09:27:17;;;;;;;2.67;1.70;;;22.90;91.20;;;;;;5036700;28;20119;-29
2023/06/05 09:29:45;;;;;;;1.92;1.35;;;23.20;92.30;;;;;;5036706;28;20091;-29
2023/06/05 09:32:19;;;;;;;2.28;1.30;;;23.00;99.90;;;;;;5036322;28;20063;-28
2023/06/05 09:34:45;;;;;;;5.30;1.13;;;23.30;99.90;;;;;;5034857;28;20041;-28
2023/06/05 09:37:12;;;;;;;1.50;1.13;;;22.70;98.30;;;;;;5036001;28;20045;-29
2023/06/05 09:39:46;;;;;;;4.20;1.30;;;22.80;99.90;;;;;;5034510;28;20489;-28
2023/06/05 09:42:12;;;;;;;2.28;1.70;;;22.90;99.90;;;;;;5036202;28;20057;-28
2023/06/05 09:44:38;;;;;;;4.72;2.25;;;22.10;99.90;;;;;;5035469;28;20382;-29
2023/06/05 09:47:07;;;;;;;2.75;1.40;;;22.80;99.90;;;;;;5018307;28;20053;-29
2023/06/05 09:49:48;;;;;;;1.63;1.10;;;23.10;86.90;;;;;;5035745;28;20485;-27
2023/06/05 09:52:14;;;;;;;3.25;1.50;;;23.40;45.80;;;;;;5036525;28;20358;-28
2023/06/05 09:54:44;;;;;;;2.83;1.38;;;23.40;73.60;;;;;;5036448;28;20045;-28
2023/06/05 09:57:12;;;;;;;4.07;1.50;;;23.70;37.00;;;;;;5034397;28;20136;-29
2023/06/05 10:00:03;;;;;;;3.15;1.40;;;23.60;20.20;;;;;;5035388;28;20053;-29
2023/06/05 10:02:33;;;;;;;1.88;1.60;;;23.40;1.00;;;;;;5035876;28;20050;-29
2023/06/05 10:05:04;;;;;;;2.22;1.55;;;23.20;1.00;;;;;;5035396;28;20042;-30
2023/06/05 10:07:35;;;;;;;2.53;1.48;;;23.40;1.00;;;;;;5035445;28;20205;-29
2023/06/05 10:10:02;;;;;;;3.47;1.60;;;23.60;60.00;;;;;;5034187;28;20045;-30
2023/06/05 10:12:30;;;;;;;3.33;1.83;;;23.80;58.10;;;;;;5035315;28;20053;-29
2023/06/05 10:14:57;;;;;;;3.85;1.70;;;23.80;31.40;;;;;;5035222;28;20128;-29
2023/06/05 10:17:24;;;;;;;2.85;1.25;;;23.40;21.00;;;;;;5033971;28;20400;-29
2023/06/05 10:19:50;;;;;;;2.42;1.17;;;22.60;57.50;;;;;;5035124;28;20045;-29
2023/06/05 10:22:19;;;;;;;2.42;1.30;;;21.50;44.20;;;;;;5035144;28;20104;-28
2023/06/05 10:24:51;;;;;;;2.63;1.63;;;21.30;88.30;;;;;;5033253;28;20473;-30
2023/06/05 10:27:33;;;;;;;2.67;1.75;;;21.50;99.90;;;;;;5033715;28;20111;-29
2023/06/05 10:30:08;;;;;;;1.95;1.50;;;22.10;99.90;;;;;;5035628;28;20049;-29
2023/06/05 10:32:42;;;;;;;2.78;1.40;;;22.80;99.90;;;;;;5034911;28;20049;-29
2023/06/05 10:35:16;;;;;;;1.60;1.30;;;23.40;99.90;;;;;;5033973;28;20053;-29
2023/06/05 10:38:00;;;;;;;1.83;1.50;;;24.00;99.90;;;;;;5035623;28;20051;-30
2023/06/05 10:40:26;;;;;;;3.15;1.50;;;24.00;99.90;;;;;;5033591;28;20053;-29
2023/06/05 10:42:52;;;;;;;2.28;1.33;;;24.30;99.90;;;;;;5034977;28;20042;-28
2023/06/05 10:45:31;;;;;;;2.28;1.60;;;24.30;99.90;;;;;;5033447;28;20389;-29
2023/06/05 10:47:56;;;;;;;2.15;1.33;;;25.10;99.90;;;;;;5035202;28;20041;-31
2023/06/05 10:50:27;;;;;;;1.45;1.35;;;24.50;99.90;;;;;;5034855;28;20045;-30
2023/06/05 10:52:54;;;;;;;3.92;1.67;;;23.90;84.60;;;;;;5035372;28;20045;-29
2023/06/05 10:55:23;;;;;;;1.75;1.40;;;22.70;33.10;;;;;;5034243;28;20493;-30
2023/06/05 10:58:00;;;;;;;2.35;1.50;;;22.20;99.90;;;;;;5034096;28;20586;-29
2023/06/05 11:00:27;;;;;;;1.75;1.40;;;22.80;95.10;;;;;;5034394;28;20052;-30
2023/06/05 11:02:53;;;;;;;1.50;1.40;;;22.30;99.90;;;;;;5016908;28;20540;-30
2023/06/05 11:05:20;;;;;;;3.53;1.33;;;21.20;99.90;;;;;;5034238;28;20124;-29
2023/06/05 11:07:46;;;;;;;2.05;1.25;;;22.20;99.90;;;;;;5034768;28;20049;-30
2023/06/05 11:10:20;;;;;;;3.03;1.42;;;22.60;99.90;;;;;;5034205;28;20046;-29
2023/06/05 11:12:46;;;;;;;3.90;1.90;;;23.10;95.10;;;;;;5034184;28;20077;-29
2023/06/05 11:15:12;;;;;;;2.80;1.80;;;23.10;99.90;;;;;;5035006;28;20076;-30
2023/06/05 11:17:47;;;;;;;2.17;1.65;;;22.80;99.90;;;;;;5016413;28;20045;-30
2023/06/05 11:20:28;;;;;;;2.70;1.90;;;23.50;99.90;;;;;;5033994;28;20166;-29
2023/06/05 11:22:57;;;;;;;5.32;1.75;;;23.60;99.90;;;;;;5033547;28;20059;-29
2023/06/05 11:25:29;;;;;;;4.60;1.90;;;23.80;99.90;;;;;;5033634;28;20049;-29
2023/06/05 11:28:01;;;;;;;1.92;1.40;;;22.90;99.90;;;;;;5034335;28;20461;-29
2023/06/05 11:30:44;;;;;;;5.57;1.80;;;22.80;91.50;;;;;;5033849;28;20045;-30
2023/06/05 11:33:12;;;;;;;;;;;22.60;99.90;;;;;;5034281;28;20054;-29
2023/06/05 11:35:38;;;;;;;3.63;1.70;;;22.30;99.90;;;;;;5034215;28;19983;-30
2023/06/05 11:38:08;;;;;;;2.72;1.65;;;22.00;99.90;;;;;;5032014;28;20049;-29
2023/06/05 11:40:35;;;;;;;2.33;1.83;;;22.80;99.90;;;;;;5033060;28;20057;-31
2023/06/05 11:43:05;;;;;;;1.90;1.40;;;23.00;99.90;;;;;;5032726;28;20049;-30
2023/06/05 11:45:34;;;;;;;1.60;1.50;;;22.60;99.90;;;;;;5032390;28;20041;-28
2023/06/05 11:48:10;;;;;;;3.20;1.88;;;23.10;99.90;;;;;;5033374;28;20045;-31
2023/06/05 11:50:51;;;;;;;3.40;1.70;;;23.50;99.90;;;;;;5034487;28;20085;-29
2023/06/05 11:53:17;;;;;;;3.05;2.15;;;23.60;99.90;;;;;;5032394;28;20552;-30
2023/06/05 11:58:28;;;;;;;3.70;1.80;;;22.10;86.20;;;;;;5033621;28;20053;-29
2023/06/05 12:01:17;;;;;;;2.63;1.65;;;22.80;99.90;;;;;;5033547;28;20079;-29
2023/06/05 12:03:46;;;;;;;2.45;1.95;;;22.80;98.50;;;;;;5032626;28;20501;-29
2023/06/05 12:06:13;;;;;;;4.03;1.58;;;22.60;99.90;;;;;;5033467;28;20055;-29
2023/06/05 12:08:39;;;;;;;2.42;1.60;;;23.10;99.90;;;;;;5033089;28;20386;-29
2023/06/05 12:11:26;;;;;;;1.98;1.77;;;22.80;99.90;;;;;;5033413;28;20053;-29
2023/06/05 12:13:54;;;;;;;2.22;1.52;;;23.30;99.90;;;;;;5032352;28;20037;-29
2023/06/05 12:16:34;;;;;;;1.77;1.50;;;23.40;99.90;;;;;;5033369;28;20107;-29
2023/06/05 12:19:00;;;;;;;2.45;1.50;;;23.70;99.90;;;;;;5033120;28;20498;-29
2023/06/05 12:21:27;;;;;;;1.88;1.33;;;23.80;95.50;;;;;;5033163;28;20050;-31
2023/06/05 12:24:04;;;;;;;2.17;1.42;;;23.60;95.20;;;;;;5033244;28;20099;-29
2023/06/05 12:26:47;;;;;;;1.95;1.30;;;24.00;99.90;;;;;;5033551;28;20066;-29
2023/06/05 12:29:13;;;;;;;3.97;1.38;;;24.00;94.10;;;;;;5033847;28;20531;-29
2023/06/05 12:31:39;;;;;;;3.17;1.60;;;23.70;99.90;;;;;;5032965;28;20516;-29
2023/06/05 12:34:06;;;;;;;2.15;1.70;;;23.50;99.30;;;;;;5033156;28;20485;-29
2023/06/05 12:36:42;;;;;;;3.05;1.75;;;22.40;99.90;;;;;;5033149;28;20056;-30
2023/06/05 12:39:12;;;;;;;3.35;1.90;;;22.70;99.90;;;;;;5033133;28;20061;-29
2023/06/05 12:41:39;;;;;;;3.08;2.03;;;22.90;99.90;;;;;;5033437;28;20050;-29
2023/06/05 12:44:06;;;;;;;4.85;2.10;;;23.20;99.90;;;;;;5032991;28;20077;-29
2023/06/05 12:46:32;;;;;;;4.10;2.60;;;23.30;99.90;;;;;;5032124;28;20485;-30
2023/06/05 12:48:59;;;;;;;4.53;2.83;;;23.20;99.90;;;;;;5034810;28;20099;-29
2023/06/05 12:51:26;;;;;;;3.70;2.40;;;22.60;99.90;;;;;;5035687;28;20104;-29
2023/06/05 12:53:53;;;;;;;3.08;2.17;;;23.10;99.90;;;;;;5036751;28;20045;-29
2023/06/05 12:56:24;;;;;;;4.18;3.00;;;23.20;99.90;;;;;;5036708;28;20081;-29
2023/06/05 12:58:51;;;;;;;4.43;2.95;;;23.00;99.90;;;;;;5037290;28;20162;-29